Time;durP1;ratioP1;P1;durP2;ratioP2;P2;SDS_P1;SDS_P2;PMS_P1;PMS_P2;Temp;Humidity;BMP_temperature;BMP_pressure;BME280_temperature;BME280_humidity;BME280_pressure;Samples;Min_cycle;Max_cycle;Signal;HPM_P1;HPM_P2
2022/12/26 00:01:09;;;;;;;3.28;1.00;;;11.50;99.90;;;;;;5057086;28;20411;-69
2022/12/26 00:03:34;;;;;;;2.80;0.90;;;11.50;99.90;;;;;;5057535;28;20075;-69
2022/12/26 00:06:00;;;;;;;2.20;0.90;;;11.50;99.90;;;;;;5057199;28;20029;-69
2022/12/26 00:08:26;;;;;;;2.17;1.05;;;11.50;99.90;;;;;;5057399;28;20478;-69
2022/12/26 00:10:51;;;;;;;3.53;0.82;;;11.50;99.90;;;;;;5039188;28;20055;-69
2022/12/26 00:13:17;;;;;;;1.63;0.82;;;11.50;99.90;;;;;;5057271;28;20033;-69
2022/12/26 00:15:43;;;;;;;2.05;0.90;;;11.50;99.90;;;;;;5057146;28;20032;-69
2022/12/26 00:18:08;;;;;;;4.10;0.90;;;11.50;99.90;;;;;;5056910;28;20027;-69
2022/12/26 00:20:34;;;;;;;2.90;1.30;;;11.50;99.90;;;;;;5056986;28;20025;-69
2022/12/26 00:23:00;;;;;;;2.50;0.90;;;11.50;99.90;;;;;;5057203;28;20132;-69
2022/12/26 00:25:25;;;;;;;2.95;0.95;;;11.50;99.90;;;;;;5057057;28;20489;-69
2022/12/26 00:27:51;;;;;;;3.85;0.93;;;11.50;99.90;;;;;;5041688;28;20025;-69
2022/12/26 00:30:17;;;;;;;3.63;1.05;;;11.50;99.90;;;;;;5043252;28;20079;-69
2022/12/26 00:32:42;;;;;;;3.47;0.90;;;11.40;99.90;;;;;;5043056;28;20025;-69
2022/12/26 00:35:08;;;;;;;2.75;0.90;;;11.40;99.90;;;;;;5043089;28;20074;-69
2022/12/26 00:37:34;;;;;;;2.78;1.10;;;11.40;99.90;;;;;;5060956;28;20028;-69
2022/12/26 00:39:59;;;;;;;3.10;0.90;;;11.40;99.90;;;;;;5061033;28;20025;-68
2022/12/26 00:42:25;;;;;;;3.35;1.23;;;11.40;99.90;;;;;;5061319;28;20025;-69
2022/12/26 00:44:51;;;;;;;2.75;1.08;;;11.50;99.90;;;;;;5060937;28;20019;-69
2022/12/26 00:47:16;;;;;;;4.82;1.15;;;11.50;99.90;;;;;;5060601;28;20029;-69
2022/12/26 00:49:42;;;;;;;3.22;0.90;;;11.50;99.90;;;;;;5060798;28;20079;-69
2022/12/26 00:52:08;;;;;;;3.30;0.90;;;11.50;99.90;;;;;;5060869;28;20025;-69
2022/12/26 00:54:33;;;;;;;3.40;0.85;;;11.50;99.90;;;;;;5042779;28;20440;-69
2022/12/26 00:56:59;;;;;;;4.30;1.10;;;11.50;99.90;;;;;;5060698;28;20029;-69
2022/12/26 00:59:24;;;;;;;1.77;0.90;;;11.50;99.90;;;;;;5042657;28;20477;-69
2022/12/26 01:01:50;;;;;;;3.63;0.90;;;11.50;99.90;;;;;;5060290;28;20021;-69
2022/12/26 01:04:16;;;;;;;3.15;0.98;;;11.50;99.90;;;;;;5042647;28;20017;-69
2022/12/26 01:06:41;;;;;;;4.80;0.82;;;11.50;99.90;;;;;;5060613;28;20401;-69
2022/12/26 01:09:10;;;;;;;4.03;0.93;;;11.50;99.90;;;;;;5060508;28;20057;-69
2022/12/26 01:11:39;;;;;;;4.40;1.08;;;11.50;99.90;;;;;;5060313;28;20077;-69
2022/12/26 01:14:11;;;;;;;3.22;0.90;;;11.50;99.90;;;;;;5060314;28;20092;-69
2022/12/26 01:16:38;;;;;;;4.75;1.00;;;11.50;99.90;;;;;;5060138;28;20021;-69
2022/12/26 01:19:04;;;;;;;5.63;1.38;;;11.50;99.90;;;;;;5042232;28;20024;-69
2022/12/26 01:21:30;;;;;;;3.90;0.90;;;11.50;99.90;;;;;;5060363;28;20366;-69
2022/12/26 01:23:56;;;;;;;4.75;1.25;;;11.50;99.90;;;;;;5060140;28;20020;-69
2022/12/26 01:26:21;;;;;;;3.72;0.90;;;11.50;99.90;;;;;;5060307;28;20051;-69
2022/12/26 01:28:48;;;;;;;4.93;1.10;;;11.50;99.90;;;;;;5060038;28;20486;-69
2022/12/26 01:31:14;;;;;;;3.97;1.00;;;11.50;99.90;;;;;;5060063;28;20025;-69
2022/12/26 01:33:39;;;;;;;3.53;0.75;;;11.50;99.90;;;;;;5041893;28;20036;-69
2022/12/26 01:36:05;;;;;;;5.25;0.98;;;11.50;99.90;;;;;;5059760;28;20060;-69
2022/12/26 01:38:31;;;;;;;8.63;1.40;;;11.40;99.90;;;;;;5058768;28;20041;-69
2022/12/26 01:43:53;;;;;;;4.38;1.02;;;11.50;99.90;;;;;;5047431;28;20075;-69
2022/12/26 01:46:29;;;;;;;3.60;1.00;;;11.50;99.90;;;;;;5059531;28;20041;-69
2022/12/26 01:49:05;;;;;;;4.18;0.88;;;11.50;99.90;;;;;;5059908;28;20112;-69
2022/12/26 01:51:35;;;;;;;4.18;1.02;;;11.50;99.90;;;;;;5059640;28;20061;-69
2022/12/26 01:54:04;;;;;;;3.72;0.90;;;11.50;99.90;;;;;;5059801;28;20091;-69
2022/12/26 01:56:36;;;;;;;4.60;1.17;;;11.50;99.90;;;;;;5059619;28;20116;-69
2022/12/26 01:59:10;;;;;;;5.82;0.90;;;11.50;99.90;;;;;;5059632;28;20024;-69
2022/12/26 02:01:39;;;;;;;2.83;0.68;;;11.50;99.90;;;;;;5059261;28;20048;-69
2022/12/26 02:06:52;;;;;;;5.40;0.80;;;11.50;99.90;;;;;;5059492;28;20032;-69
2022/12/26 02:09:18;;;;;;;4.72;1.00;;;11.50;99.90;;;;;;5059517;28;20021;-69
2022/12/26 02:11:53;;;;;;;4.78;0.93;;;11.50;99.90;;;;;;5059188;28;20053;-69
2022/12/26 02:14:19;;;;;;;5.40;1.13;;;11.50;99.90;;;;;;5059148;28;20032;-69
2022/12/26 02:16:45;;;;;;;5.65;0.95;;;11.50;99.90;;;;;;5058963;28;20081;-69
2022/12/26 02:19:31;;;;;;;5.05;1.15;;;11.50;99.90;;;;;;5059406;28;20722;-69
2022/12/26 02:22:21;;;;;;;4.85;0.90;;;11.50;99.90;;;;;;5058466;28;20037;-69
2022/12/26 02:25:09;;;;;;;4.38;1.10;;;11.50;99.90;;;;;;5059340;28;20017;-69
2022/12/26 02:27:44;;;;;;;7.15;0.90;;;11.50;99.90;;;;;;5059107;28;20025;-69
2022/12/26 02:30:34;;;;;;;4.85;1.20;;;11.50;99.90;;;;;;5041011;28;20412;-69
2022/12/26 02:33:27;;;;;;;3.63;0.88;;;11.60;99.90;;;;;;5040658;28;20056;-69
2022/12/26 02:36:04;;;;;;;5.03;0.80;;;11.60;99.90;;;;;;5058758;28;20540;-69
2022/12/26 02:38:45;;;;;;;5.70;1.17;;;11.60;99.90;;;;;;5058732;28;20229;-69
2022/12/26 02:41:25;;;;;;;5.70;1.13;;;11.60;99.90;;;;;;5058809;28;20044;-69
2022/12/26 02:43:59;;;;;;;5.93;0.80;;;11.50;99.90;;;;;;5059209;28;20029;-68
2022/12/26 03:13:09;;;;;;;3.55;0.73;;;11.60;99.90;;;;;;5058705;28;20503;-68
2022/12/26 03:15:26;;;;;;;4.78;0.80;;;11.60;99.90;;;;;;5038340;28;20040;-69
2022/12/26 03:18:02;;;;;;;2.90;0.60;;;11.60;99.90;;;;;;5037904;28;20072;-69
2022/12/26 03:20:37;;;;;;;3.05;0.63;;;11.60;99.90;;;;;;5037982;28;20022;-69
2022/12/26 03:23:08;;;;;;;6.00;0.70;;;11.60;99.90;;;;;;5038084;28;20027;-69
2022/12/26 03:28:42;;;;;;;3.70;0.73;;;11.60;99.90;;;;;;5037879;28;20027;-69
2022/12/26 03:31:11;;;;;;;2.67;1.00;;;11.60;99.90;;;;;;5037634;28;20053;-69
2022/12/26 03:36:57;;;;;;;4.40;1.00;;;11.60;99.90;;;;;;5037760;28;20143;-69
2022/12/26 04:44:33;;;;;;;3.30;0.63;;;11.50;99.90;;;;;;5056939;28;20036;-69
2022/12/26 04:46:59;;;;;;;4.18;0.77;;;11.40;99.90;;;;;;5056689;28;20067;-69
2022/12/26 04:52:12;;;;;;;4.38;0.90;;;11.40;99.90;;;;;;5057132;28;20147;-69
2022/12/26 04:54:37;;;;;;;2.78;1.05;;;11.40;99.90;;;;;;5056848;28;20028;-69
2022/12/26 04:57:04;;;;;;;2.50;0.73;;;11.30;99.90;;;;;;5056821;28;20021;-69
2022/12/26 04:59:30;;;;;;;2.90;0.63;;;11.30;99.90;;;;;;5056861;28;20025;-69
2022/12/26 05:10:17;;;;;;;3.50;0.60;;;11.20;99.90;;;;;;5056821;28;20059;-69
2022/12/26 05:12:43;;;;;;;2.63;0.90;;;11.20;99.90;;;;;;5056593;28;20024;-69
2022/12/26 05:15:09;;;;;;;1.35;0.55;;;11.20;99.90;;;;;;5059354;28;20028;-69
2022/12/26 05:28:41;;;;;;;5.10;0.90;;;11.10;99.90;;;;;;5060304;28;20113;-69
2022/12/26 05:31:14;;;;;;;2.42;0.65;;;11.10;99.90;;;;;;5059936;28;20087;-69
2022/12/26 05:36:39;;;;;;;7.88;1.23;;;11.10;99.90;;;;;;5060152;28;20044;-69
2022/12/26 05:39:05;;;;;;;4.43;0.70;;;11.10;99.90;;;;;;5060076;28;20025;-69
2022/12/26 05:41:31;;;;;;;2.70;0.60;;;11.10;99.90;;;;;;5059928;28;20424;-69
2022/12/26 05:43:57;;;;;;;4.25;0.80;;;11.10;99.90;;;;;;5042012;28;20112;-69
2022/12/26 05:46:22;;;;;;;4.43;0.70;;;11.10;99.90;;;;;;5059536;28;20045;-69
2022/12/26 05:48:48;;;;;;;3.30;0.75;;;11.10;99.90;;;;;;5059822;28;20029;-69
2022/12/26 05:51:14;;;;;;;3.67;0.68;;;11.10;99.90;;;;;;5059777;28;20024;-69
2022/12/26 05:53:39;;;;;;;4.22;0.90;;;11.10;99.90;;;;;;5059768;28;20035;-69
2022/12/26 05:56:10;;;;;;;5.40;0.80;;;11.00;99.90;;;;;;5059475;28;20025;-69
2022/12/26 05:58:37;;;;;;;4.00;0.80;;;11.00;99.90;;;;;;5059770;28;20029;-69
2022/12/26 06:01:09;;;;;;;5.05;0.80;;;11.00;99.90;;;;;;5059210;28;20021;-69
2022/12/26 06:03:35;;;;;;;3.95;0.77;;;11.00;99.90;;;;;;5041490;28;20028;-69
2022/12/26 06:06:01;;;;;;;2.72;0.40;;;11.00;99.90;;;;;;5059503;28;20033;-69
2022/12/26 06:08:27;;;;;;;4.82;1.25;;;11.00;99.90;;;;;;5059479;28;20029;-69
2022/12/26 06:10:52;;;;;;;5.32;0.88;;;11.00;99.90;;;;;;5059184;28;20057;-69
2022/12/26 06:13:18;;;;;;;1.85;0.73;;;11.00;99.90;;;;;;5059356;28;20029;-69
2022/12/26 06:15:43;;;;;;;3.55;1.00;;;11.00;99.90;;;;;;5058928;28;20470;-68
2022/12/26 06:18:09;;;;;;;3.03;0.65;;;11.00;99.90;;;;;;5059181;28;20477;-69
2022/12/26 06:20:37;;;;;;;4.63;0.98;;;11.00;99.90;;;;;;5059163;28;20052;-69
2022/12/26 06:23:03;;;;;;;3.38;0.57;;;11.00;99.90;;;;;;5059150;28;20024;-69
2022/12/26 06:25:29;;;;;;;7.97;0.98;;;11.00;99.90;;;;;;5058629;28;20025;-69
2022/12/26 06:27:54;;;;;;;4.63;0.80;;;11.00;99.90;;;;;;5059180;28;20070;-69
2022/12/26 06:30:20;;;;;;;1.73;0.50;;;11.00;99.90;;;;;;5058959;28;20082;-69
2022/12/26 06:32:45;;;;;;;3.38;0.90;;;11.00;99.90;;;;;;5058640;28;20020;-69
2022/12/26 06:35:11;;;;;;;4.15;0.70;;;11.00;99.90;;;;;;5040822;28;20204;-69
2022/12/26 06:37:37;;;;;;;3.58;0.70;;;11.00;99.90;;;;;;5049009;28;20017;-69
2022/12/26 06:40:04;;;;;;;3.85;0.90;;;11.00;99.90;;;;;;5058673;28;20091;-69
2022/12/26 06:42:29;;;;;;;3.58;0.60;;;11.00;99.90;;;;;;5058778;28;20017;-69
2022/12/26 06:44:55;;;;;;;3.53;0.70;;;11.10;99.90;;;;;;5058604;28;20031;-69
2022/12/26 06:47:20;;;;;;;6.22;0.75;;;11.00;99.90;;;;;;5058399;28;20028;-69
2022/12/26 06:49:46;;;;;;;5.13;0.85;;;11.10;99.90;;;;;;5058758;28;20036;-69
2022/12/26 06:52:12;;;;;;;3.97;0.70;;;11.10;99.90;;;;;;5058604;28;20474;-69
2022/12/26 06:54:38;;;;;;;5.13;1.25;;;11.10;99.90;;;;;;5058509;28;20020;-69
2022/12/26 06:57:04;;;;;;;7.47;0.82;;;11.10;99.90;;;;;;5040550;28;20032;-69
2022/12/26 06:59:29;;;;;;;5.07;0.85;;;11.10;99.90;;;;;;5058480;28;20029;-69
2022/12/26 07:01:55;;;;;;;4.97;0.82;;;11.10;99.90;;;;;;5058108;28;20053;-69
2022/12/26 07:04:21;;;;;;;2.80;0.52;;;11.10;99.90;;;;;;5058273;28;20116;-69
2022/12/26 07:06:46;;;;;;;3.55;0.90;;;11.10;99.90;;;;;;5058375;28;20586;-69
2022/12/26 07:09:15;;;;;;;1.98;0.70;;;11.10;99.90;;;;;;5058147;28;20028;-69
2022/12/26 07:11:47;;;;;;;5.78;0.70;;;11.10;99.90;;;;;;5040146;28;20452;-69
2022/12/26 07:14:13;;;;;;;5.55;1.00;;;11.10;99.90;;;;;;5057969;28;20024;-69
2022/12/26 07:16:41;;;;;;;3.08;0.93;;;11.10;99.90;;;;;;5039861;28;20029;-69
2022/12/26 07:19:10;;;;;;;5.68;1.05;;;11.10;99.90;;;;;;5057903;28;20033;-69
2022/12/26 07:21:35;;;;;;;5.60;1.08;;;11.00;99.90;;;;;;5058022;28;20044;-69
2022/12/26 07:24:01;;;;;;;3.22;0.75;;;11.00;99.90;;;;;;5039877;28;20115;-69
2022/12/26 07:26:27;;;;;;;4.70;0.82;;;11.00;99.90;;;;;;5057927;28;20047;-69
2022/12/26 07:28:54;;;;;;;6.80;0.98;;;11.00;99.90;;;;;;5058005;28;20029;-69
2022/12/26 07:31:20;;;;;;;4.88;0.80;;;11.00;99.90;;;;;;5057549;28;20021;-69
2022/12/26 07:33:49;;;;;;;4.72;0.93;;;11.00;99.90;;;;;;5057683;28;20151;-69
2022/12/26 07:36:16;;;;;;;5.82;1.45;;;11.00;99.90;;;;;;5057154;28;20021;-69
2022/12/26 07:38:42;;;;;;;3.65;0.95;;;11.00;99.90;;;;;;5039618;28;20474;-69
2022/12/26 07:43:53;;;;;;;5.28;0.95;;;11.00;99.90;;;;;;5016831;28;20044;-69
2022/12/26 07:46:19;;;;;;;5.55;0.85;;;11.10;99.90;;;;;;5057160;28;20032;-69
2022/12/26 07:48:45;;;;;;;7.72;1.48;;;11.10;99.90;;;;;;5057773;28;20029;-69
2022/12/26 07:51:11;;;;;;;6.85;0.85;;;11.10;99.90;;;;;;5057372;28;20600;-69
2022/12/26 07:53:37;;;;;;;6.93;0.98;;;11.10;99.90;;;;;;5039561;28;20105;-69
2022/12/26 07:56:03;;;;;;;5.15;0.93;;;11.10;99.90;;;;;;5057176;28;20025;-69
2022/12/26 07:58:28;;;;;;;6.07;1.13;;;11.10;99.90;;;;;;5057690;28;20028;-69
2022/12/26 08:00:54;;;;;;;4.72;1.52;;;11.10;99.90;;;;;;5057029;28;20017;-69
2022/12/26 08:03:20;;;;;;;8.30;1.40;;;11.10;99.90;;;;;;5057392;28;20029;-69
2022/12/26 08:05:47;;;;;;;5.10;1.00;;;11.10;99.90;;;;;;5057234;28;20382;-68
2022/12/26 08:08:13;;;;;;;5.63;1.00;;;11.10;99.90;;;;;;5057408;28;20029;-69
2022/12/26 08:10:39;;;;;;;6.57;1.38;;;11.10;99.90;;;;;;5057001;28;20103;-69
2022/12/26 08:13:04;;;;;;;6.53;1.00;;;11.10;99.90;;;;;;5057415;28;20044;-68
2022/12/26 08:15:30;;;;;;;7.72;1.52;;;11.10;99.90;;;;;;5056883;28;20083;-69
2022/12/26 08:17:56;;;;;;;8.05;1.40;;;11.10;99.90;;;;;;5057176;28;20021;-69
2022/12/26 08:20:21;;;;;;;5.60;1.45;;;11.10;99.90;;;;;;5057219;28;20036;-69
2022/12/26 08:22:47;;;;;;;7.75;1.30;;;11.10;99.90;;;;;;5057351;28;20074;-69
2022/12/26 08:25:13;;;;;;;4.32;1.20;;;11.10;99.90;;;;;;5057084;28;20036;-69
2022/12/26 08:27:38;;;;;;;5.10;0.93;;;11.10;99.90;;;;;;5057064;28;20025;-70
2022/12/26 08:30:04;;;;;;;5.00;0.82;;;11.10;99.90;;;;;;5057030;28;20036;-68
2022/12/26 08:32:30;;;;;;;3.00;0.80;;;11.10;99.90;;;;;;5056959;28;20075;-69
2022/12/26 08:34:56;;;;;;;7.65;0.90;;;11.10;99.90;;;;;;5057008;28;20056;-69
2022/12/26 08:37:23;;;;;;;4.63;1.05;;;11.10;99.90;;;;;;5056896;28;20052;-69
2022/12/26 08:39:51;;;;;;;4.68;1.20;;;11.10;99.90;;;;;;5056927;28;20056;-69
2022/12/26 08:42:17;;;;;;;5.32;0.90;;;11.10;99.90;;;;;;5057109;28;20489;-68
2022/12/26 08:44:43;;;;;;;4.00;0.82;;;11.10;99.90;;;;;;5056865;28;20021;-69
2022/12/26 08:47:08;;;;;;;6.38;0.90;;;11.10;99.90;;;;;;5056780;28;20485;-69
2022/12/26 08:49:34;;;;;;;3.00;0.80;;;11.10;99.90;;;;;;5060515;28;20370;-69
2022/12/26 08:52:00;;;;;;;7.80;1.25;;;11.10;99.90;;;;;;5060965;28;20029;-68
2022/12/26 08:54:25;;;;;;;8.68;1.17;;;11.10;99.90;;;;;;5060875;28;20029;-69
2022/12/26 08:56:51;;;;;;;6.32;1.35;;;11.00;99.90;;;;;;5060874;28;20033;-68
2022/12/26 08:59:17;;;;;;;5.18;1.27;;;11.10;99.90;;;;;;5060738;28;20101;-69
2022/12/26 09:01:43;;;;;;;7.07;1.60;;;11.10;99.90;;;;;;5060401;28;20032;-69
2022/12/26 09:04:08;;;;;;;7.78;1.35;;;11.00;99.90;;;;;;5060702;28;20129;-69
2022/12/26 09:06:37;;;;;;;3.47;1.02;;;11.00;99.90;;;;;;5042370;28;20029;-69
2022/12/26 09:09:04;;;;;;;4.07;0.85;;;11.00;99.90;;;;;;5060518;28;20171;-69
2022/12/26 09:11:30;;;;;;;7.75;1.40;;;11.00;99.90;;;;;;5060339;28;20056;-69
2022/12/26 09:13:57;;;;;;;6.68;1.10;;;11.00;99.90;;;;;;5060439;28;20025;-69
2022/12/26 09:16:26;;;;;;;4.30;1.10;;;11.00;99.90;;;;;;5060106;28;20481;-69
2022/12/26 09:18:55;;;;;;;5.90;1.20;;;11.10;99.90;;;;;;5042386;28;20017;-69
2022/12/26 09:21:21;;;;;;;3.83;1.00;;;11.00;99.90;;;;;;5060402;28;20025;-69
2022/12/26 09:23:47;;;;;;;5.63;1.05;;;11.10;99.90;;;;;;5060608;28;20100;-69
2022/12/26 09:26:18;;;;;;;6.32;1.35;;;11.10;99.90;;;;;;5060307;28;20068;-69
2022/12/26 09:28:45;;;;;;;5.68;1.83;;;11.10;99.90;;;;;;5060106;28;20032;-69
2022/12/26 09:31:21;;;;;;;5.72;1.30;;;11.10;99.90;;;;;;5060060;28;20036;-69
2022/12/26 09:33:47;;;;;;;9.50;2.97;;;11.10;99.90;;;;;;5060020;28;20381;-69
2022/12/26 09:36:16;;;;;;;7.00;2.03;;;11.00;99.90;;;;;;5049629;28;20028;-69
2022/12/26 09:38:43;;;;;;;5.35;1.48;;;11.00;99.90;;;;;;5046787;28;20048;-69
2022/12/26 09:41:38;;;;;;;6.03;1.52;;;11.00;99.90;;;;;;5060135;28;20393;-69
2022/12/26 09:44:13;;;;;;;6.47;1.88;;;11.10;99.90;;;;;;5059945;28;20017;-69
2022/12/26 09:46:57;;;;;;;15.27;5.28;;;11.10;99.90;;;;;;5059501;28;20033;-69
2022/12/26 09:49:30;;;;;;;4.22;1.70;;;11.10;99.90;;;;;;5059903;28;20025;-69
2022/12/26 09:51:59;;;;;;;7.40;1.75;;;11.10;99.90;;;;;;5060087;28;20040;-69
2022/12/26 09:54:42;;;;;;;5.90;1.40;;;11.20;99.90;;;;;;5059575;28;20049;-69
2022/12/26 09:57:15;;;;;;;8.90;1.70;;;11.00;99.90;;;;;;5059645;28;20029;-69
2022/12/26 09:59:59;;;;;;;3.70;1.30;;;11.00;99.90;;;;;;5040719;28;20033;-69
2022/12/26 10:02:25;;;;;;;3.80;1.10;;;11.00;99.90;;;;;;5059260;28;20044;-69
2022/12/26 10:04:53;;;;;;;4.95;1.08;;;10.90;99.90;;;;;;5059733;28;20386;-69
2022/12/26 10:07:48;;;;;;;5.28;1.35;;;10.90;99.90;;;;;;5059503;28;20044;-69
2022/12/26 10:10:30;;;;;;;5.72;1.00;;;10.90;99.90;;;;;;5041780;28;20052;-68
2022/12/26 10:13:10;;;;;;;4.32;1.17;;;10.90;99.90;;;;;;5059458;28;20035;-69
2022/12/26 10:15:36;;;;;;;3.17;0.90;;;10.90;99.90;;;;;;5058949;28;20040;-69
2022/12/26 10:18:04;;;;;;;5.18;1.13;;;10.90;99.90;;;;;;5059303;28;20025;-69
2022/12/26 10:20:36;;;;;;;6.85;1.52;;;11.00;99.90;;;;;;5059099;28;20021;-69
2022/12/26 10:23:23;;;;;;;2.95;0.93;;;11.00;99.90;;;;;;5059239;28;20025;-69
2022/12/26 10:26:14;;;;;;;2.95;0.90;;;11.00;99.90;;;;;;5059264;28;20021;-69
2022/12/26 10:29:09;;;;;;;5.68;1.17;;;11.00;99.90;;;;;;5059020;28;20025;-68
2022/12/26 10:31:43;;;;;;;6.63;1.10;;;11.10;99.90;;;;;;5058762;28;20500;-69
2022/12/26 10:34:17;;;;;;;5.35;1.17;;;11.00;99.90;;;;;;5041061;28;20060;-69
2022/12/26 10:36:48;;;;;;;5.57;1.00;;;11.00;99.90;;;;;;5058529;28;20078;-69
2022/12/26 10:39:42;;;;;;;5.00;1.25;;;11.00;99.90;;;;;;5058898;28;20029;-69
2022/12/26 10:42:32;;;;;;;4.05;0.82;;;11.00;99.90;;;;;;5058959;28;20545;-69
2022/12/26 10:44:58;;;;;;;5.95;1.05;;;11.00;99.90;;;;;;5040871;28;20025;-69
2022/12/26 10:47:26;;;;;;;4.13;1.08;;;11.00;99.90;;;;;;5058511;28;20028;-69
2022/12/26 10:49:52;;;;;;;5.15;1.08;;;11.10;99.90;;;;;;5040631;28;20021;-68
2022/12/26 10:52:29;;;;;;;5.88;0.93;;;11.10;99.90;;;;;;5058771;28;20029;-69
2022/12/26 10:54:57;;;;;;;3.10;0.93;;;11.10;99.90;;;;;;5058700;28;20028;-69
2022/12/26 10:57:25;;;;;;;4.95;0.73;;;11.10;99.90;;;;;;5058513;28;20028;-68
2022/12/26 10:59:54;;;;;;;7.93;1.02;;;11.10;99.90;;;;;;5058570;28;20025;-69
2022/12/26 11:02:23;;;;;;;2.95;1.00;;;11.20;99.90;;;;;;5058073;28;20017;-69
2022/12/26 11:05:10;;;;;;;5.57;1.35;;;11.10;99.90;;;;;;5058450;28;20021;-69
2022/12/26 11:07:47;;;;;;;4.30;0.98;;;11.10;99.90;;;;;;5058237;28;20037;-69
2022/12/26 11:10:19;;;;;;;4.72;1.00;;;11.10;99.90;;;;;;5058128;28;20053;-68
2022/12/26 11:12:49;;;;;;;6.90;1.25;;;11.20;99.90;;;;;;5058353;28;20037;-69
2022/12/26 11:15:26;;;;;;;2.40;0.85;;;11.20;99.90;;;;;;5057901;28;20025;-68
2022/12/26 11:17:53;;;;;;;3.55;0.95;;;11.40;99.90;;;;;;5058123;28;20025;-69
2022/12/26 11:20:23;;;;;;;3.58;0.77;;;11.40;99.90;;;;;;5058057;28;20477;-69
2022/12/26 11:22:50;;;;;;;4.28;1.00;;;11.60;99.90;;;;;;5058229;28;20060;-69
2022/12/26 11:25:22;;;;;;;7.05;1.00;;;11.60;99.90;;;;;;5057910;28;20021;-68
2022/12/26 11:27:53;;;;;;;6.47;1.05;;;11.60;99.90;;;;;;5040137;28;20048;-69
2022/12/26 11:30:20;;;;;;;4.05;1.42;;;11.50;99.90;;;;;;5039708;28;20029;-68
2022/12/26 11:33:02;;;;;;;5.05;0.93;;;11.40;99.90;;;;;;5039908;28;20032;-69
2022/12/26 11:35:33;;;;;;;5.70;0.90;;;11.40;99.90;;;;;;5057737;28;20029;-68
2022/12/26 11:38:00;;;;;;;3.50;0.88;;;11.50;99.90;;;;;;5057722;28;20467;-68
2022/12/26 11:40:38;;;;;;;3.55;0.95;;;11.40;99.90;;;;;;5039968;28;20452;-69
2022/12/26 11:43:15;;;;;;;4.97;1.02;;;11.40;99.90;;;;;;5057758;28;20056;-69
2022/12/26 11:45:48;;;;;;;4.95;0.65;;;11.40;99.90;;;;;;5057553;28;20056;-69
2022/12/26 11:48:24;;;;;;;2.90;0.68;;;11.40;99.90;;;;;;5057489;28;20389;-69
2022/12/26 11:50:50;;;;;;;6.95;0.93;;;11.40;99.90;;;;;;5057625;28;20025;-69
2022/12/26 11:53:19;;;;;;;3.65;0.90;;;11.30;99.90;;;;;;5039702;28;20021;-68
2022/12/26 11:55:55;;;;;;;3.33;0.80;;;11.30;99.90;;;;;;5057426;28;20043;-69
2022/12/26 11:58:22;;;;;;;4.85;1.10;;;11.40;99.90;;;;;;5057670;28;20124;-69
2022/12/26 12:00:53;;;;;;;5.57;1.05;;;11.40;99.90;;;;;;5056969;28;20075;-69
2022/12/26 12:03:35;;;;;;;2.75;0.88;;;11.30;99.90;;;;;;5057374;28;20032;-69
2022/12/26 12:06:15;;;;;;;7.15;1.23;;;11.30;99.90;;;;;;5057398;28;20146;-69
2022/12/26 12:08:59;;;;;;;6.78;1.23;;;11.30;99.90;;;;;;5039456;28;20055;-69
2022/12/26 12:11:36;;;;;;;4.82;0.98;;;11.50;99.90;;;;;;5057255;28;20076;-69
2022/12/26 12:14:23;;;;;;;2.72;0.77;;;11.60;99.90;;;;;;5057287;28;20024;-69
2022/12/26 12:16:54;;;;;;;4.30;1.00;;;11.60;99.90;;;;;;5056792;28;20508;-69
2022/12/26 12:19:48;;;;;;;3.78;0.90;;;11.60;99.90;;;;;;5057443;28;20092;-68
2022/12/26 12:22:53;;;;;;;2.97;0.73;;;11.60;99.90;;;;;;5040085;28;20049;-69
2022/12/26 12:25:25;;;;;;;3.13;0.80;;;11.50;99.90;;;;;;4982803;28;20026;-69
2022/12/26 12:28:15;;;;;;;2.80;0.50;;;11.20;99.90;;;;;;5051906;28;20425;-69
2022/12/26 12:30:44;;;;;;;3.30;0.98;;;11.00;99.90;;;;;;5063648;28;20024;-68
2022/12/26 12:33:40;;;;;;;4.38;0.80;;;10.90;99.90;;;;;;5063589;28;20021;-69
2022/12/26 12:36:17;;;;;;;2.85;0.50;;;10.80;99.90;;;;;;5063819;28;20029;-69
2022/12/26 12:39:08;;;;;;;2.65;0.60;;;10.70;99.90;;;;;;5050746;28;20470;-68
2022/12/26 12:42:01;;;;;;;4.47;0.63;;;10.70;99.90;;;;;;5063785;28;20052;-69
2022/12/26 12:44:43;;;;;;;2.90;0.80;;;10.80;99.90;;;;;;5063485;28;20166;-69
2022/12/26 12:47:18;;;;;;;3.35;1.08;;;10.80;99.90;;;;;;5045404;28;20111;-69
2022/12/26 12:50:32;;;;;;;3.08;0.82;;;10.70;99.90;;;;;;5063633;28;20386;-68
2022/12/26 12:52:58;;;;;;;2.17;0.80;;;10.80;99.90;;;;;;5028516;28;20033;-69
2022/12/26 12:55:41;;;;;;;6.05;1.52;;;10.80;99.90;;;;;;5063552;28;20401;-69
2022/12/26 12:58:32;;;;;;;2.70;1.17;;;10.70;99.90;;;;;;5045560;28;20025;-68
2022/12/26 13:01:14;;;;;;;3.83;1.00;;;10.60;99.90;;;;;;5045236;28;20025;-68
2022/12/26 13:03:59;;;;;;;4.05;0.88;;;10.60;99.90;;;;;;5063497;28;20021;-68
2022/12/26 13:06:33;;;;;;;4.82;1.35;;;10.60;99.90;;;;;;5063866;28;20029;-69
2022/12/26 13:09:03;;;;;;;9.85;1.33;;;10.60;99.90;;;;;;5063490;28;20021;-68
2022/12/26 13:11:37;;;;;;;5.82;1.10;;;10.60;99.90;;;;;;5063343;28;20053;-69
2022/12/26 13:14:22;;;;;;;6.60;0.98;;;10.60;99.90;;;;;;5045366;28;20029;-69
2022/12/26 13:17:13;;;;;;;2.28;0.75;;;10.70;99.90;;;;;;5044869;28;20037;-68
2022/12/26 13:19:45;;;;;;;1.60;0.63;;;10.70;99.90;;;;;;5045367;28;20032;-68
2022/12/26 13:25:35;;;;;;;4.63;0.95;;;10.70;99.90;;;;;;5063431;28;20063;-69
2022/12/26 13:28:08;;;;;;;4.80;0.88;;;10.70;99.90;;;;;;5045190;28;20017;-68
2022/12/26 13:30:34;;;;;;;1.95;0.80;;;10.70;99.90;;;;;;5045079;28;20116;-69
2022/12/26 13:33:01;;;;;;;3.97;0.80;;;10.80;99.90;;;;;;5063148;28;20425;-69
2022/12/26 13:35:51;;;;;;;4.03;0.88;;;10.80;99.90;;;;;;5059204;28;20025;-69
2022/12/26 13:38:18;;;;;;;3.85;0.60;;;10.80;99.90;;;;;;5042040;28;20024;-69
2022/12/26 13:43:53;;;;;;;3.53;0.80;;;10.80;99.90;;;;;;5060100;28;20036;-69
2022/12/26 13:44:05;;;;;;;5.07;1.10;;;10.90;99.90;;;;;;5059851;28;20062;-69
2022/12/26 13:46:40;;;;;;;2.63;0.77;;;10.90;99.90;;;;;;5059555;28;20029;-68
2022/12/26 13:49:35;;;;;;;3.20;0.90;;;10.90;99.90;;;;;;5060033;28;20021;-68
2022/12/26 13:52:10;;;;;;;3.10;0.80;;;10.90;99.90;;;;;;5041919;28;20035;-68
2022/12/26 13:55:05;;;;;;;3.22;1.00;;;10.90;99.90;;;;;;5059858;28;20021;-69
2022/12/26 13:57:41;;;;;;;2.00;0.65;;;10.90;99.90;;;;;;5034895;28;20041;-68
2022/12/26 14:00:39;;;;;;;1.75;0.65;;;10.90;99.90;;;;;;5059726;28;20028;-68
2022/12/26 14:03:16;;;;;;;1.42;0.60;;;11.00;99.90;;;;;;5047047;28;20033;-68
2022/12/26 14:05:52;;;;;;;4.65;0.80;;;10.90;99.90;;;;;;5059549;28;20021;-69
2022/12/26 14:08:33;;;;;;;3.97;0.85;;;10.90;99.90;;;;;;5041613;28;20036;-69
2022/12/26 14:11:19;;;;;;;2.58;0.85;;;10.90;99.90;;;;;;5059193;28;20033;-68
2022/12/26 14:13:54;;;;;;;3.83;0.77;;;10.80;99.90;;;;;;5041354;28;20072;-68
2022/12/26 14:16:50;;;;;;;3.13;0.63;;;10.90;99.90;;;;;;5041089;28;20031;-68
2022/12/26 14:19:23;;;;;;;3.03;0.88;;;10.90;99.90;;;;;;5059537;28;20393;-69
2022/12/26 14:21:58;;;;;;;5.40;0.88;;;10.80;99.90;;;;;;5059215;28;20032;-69
2022/12/26 14:24:47;;;;;;;4.28;0.70;;;10.80;99.90;;;;;;5041397;28;20465;-69
2022/12/26 14:27:37;;;;;;;3.17;0.88;;;10.80;99.90;;;;;;5041062;28;20414;-68
2022/12/26 14:30:25;;;;;;;4.13;0.80;;;10.80;99.90;;;;;;5059070;28;20017;-68
2022/12/26 14:33:13;;;;;;;3.05;0.63;;;10.80;99.90;;;;;;5041105;28;20393;-69
2022/12/26 14:36:03;;;;;;;3.28;0.80;;;10.80;99.90;;;;;;5058900;28;20021;-69
2022/12/26 14:38:56;;;;;;;3.90;0.80;;;10.80;99.90;;;;;;5058945;28;20025;-68
2022/12/26 14:44:19;;;;;;;5.95;0.90;;;10.70;99.90;;;;;;5059029;28;20048;-69
2022/12/26 14:46:47;;;;;;;2.97;0.98;;;10.70;99.90;;;;;;5058151;28;20021;-69
2022/12/26 14:49:23;;;;;;;3.70;0.88;;;10.80;99.90;;;;;;5040883;28;20443;-68
2022/12/26 14:51:49;;;;;;;4.68;1.13;;;10.80;99.90;;;;;;5059045;28;20485;-69
2022/12/26 14:54:20;;;;;;;5.10;0.90;;;10.70;99.90;;;;;;5058566;28;20036;-69
2022/12/26 14:56:50;;;;;;;4.25;1.17;;;10.70;99.90;;;;;;5058668;28;20387;-68
2022/12/26 14:59:34;;;;;;;7.40;1.30;;;10.80;99.90;;;;;;5058841;28;20111;-69
2022/12/26 15:01:59;;;;;;;;;;;10.70;99.90;;;;;;5040585;28;20017;-68
2022/12/26 15:04:44;;;;;;;2.33;0.90;;;10.70;99.90;;;;;;5058476;28;19911;-68
2022/12/26 15:07:32;;;;;;;4.65;1.05;;;10.70;99.90;;;;;;5040375;28;20025;-69
2022/12/26 15:10:35;;;;;;;5.95;1.05;;;10.70;99.90;;;;;;5058271;28;20034;-68
2022/12/26 15:13:23;;;;;;;2.30;1.13;;;10.70;99.90;;;;;;5040440;28;20083;-68
2022/12/26 15:16:30;;;;;;;2.30;0.90;;;10.70;99.90;;;;;;5057866;28;20492;-69
2022/12/26 15:19:17;;;;;;;3.53;0.95;;;10.70;99.90;;;;;;5032179;28;20087;-69
2022/12/26 15:22:06;;;;;;;2.20;0.98;;;10.70;99.90;;;;;;5058029;28;20025;-69
2022/12/26 15:25:10;;;;;;;5.30;1.45;;;10.70;99.90;;;;;;5058277;28;20033;-69
2022/12/26 15:28:01;;;;;;;2.17;0.77;;;10.70;99.90;;;;;;5058327;28;20025;-69
2022/12/26 15:30:50;;;;;;;2.42;0.80;;;10.70;99.90;;;;;;5057675;28;20025;-68
2022/12/26 15:33:25;;;;;;;3.67;0.93;;;10.70;99.90;;;;;;5039748;28;20017;-69